Terminal Aerodrome Forecast
Issued by NWS Wichita, KS

Home | Current Version | Previous Version | Text Only | Print | Product List | Glossary Off
Versions: 1 2 3 4 5 6 7 8 9 10 11 12 13 14 15 16 17 18 19 20 21 22 23 24 25 26 27 28 29 30 31 32

000
FTUS43 KICT 181622 AAB
TAFICT
TAF AMD
KICT 181622Z 1816/1912 03005KT 2SM BR OVC004
      TEMPO 1816/1819 1/2SM FG VV003
     FM182100 02004KT 4SM BR OVC005=

USA.gov is the U.S. government's official web portal to all federal, state and local government web resources and services.